Time,TemperatureF,DewpointF,PressureIn,WindDirection,WindDirectionDegrees,WindSpeedMPH,WindSpeedGustMPH,Humidity,HourlyPrecipIn,Conditions,Clouds,dailyrainin,SoftwareType,DateUTC
2013-06-07 00:01:00,75.5,74.3,29.84,ESE,123,6.0,11.0,96,0.01,,---,0.00,VWS V14.01,2013-06-07 04:01:00,
2013-06-07 00:02:00,75.5,74.3,29.84,SE,128,7.0,11.0,96,0.01,,---,0.00,VWS V14.01,2013-06-07 04:02:00,
2013-06-07 00:03:00,75.4,74.2,29.84,ESE,123,11.0,11.0,96,0.01,,---,0.00,VWS V14.01,2013-06-07 04:03:00,
2013-06-07 00:08:00,75.4,74.2,29.84,ESE,115,6.0,12.0,96,0.02,,---,0.01,VWS V14.01,2013-06-07 04:08:00,
2013-06-07 00:13:00,75.4,74.2,29.84,SE,124,6.0,13.0,96,0.03,,---,0.02,VWS V14.01,2013-06-07 04:13:00,
2013-06-07 00:18:00,75.3,74.1,29.83,SE,134,11.0,13.0,96,0.03,,---,0.02,VWS V14.01,2013-06-07 04:18:00,
2013-06-07 00:23:00,75.3,74.1,29.83,SE,138,8.0,13.0,96,0.04,,---,0.03,VWS V14.01,2013-06-07 04:23:00,
2013-06-07 00:28:00,75.2,74.0,29.83,SE,135,10.0,12.0,96,0.04,,---,0.03,VWS V14.01,2013-06-07 04:28:00,
2013-06-07 00:34:00,75.2,74.0,29.83,SE,134,9.0,16.0,96,0.05,,---,0.04,VWS V14.01,2013-06-07 04:34:00,
2013-06-07 00:39:00,75.0,73.8,29.83,ESE,117,11.0,18.0,96,0.06,,---,0.05,VWS V14.01,2013-06-07 04:39:00,
2013-06-07 00:44:00,75.0,74.1,29.82,ESE,116,13.0,20.0,97,0.08,,---,0.07,VWS V14.01,2013-06-07 04:44:00,
2013-06-07 00:49:00,74.7,73.5,29.82,SE,138,11.0,20.0,96,0.12,,---,0.11,VWS V14.01,2013-06-07 04:49:00,
2013-06-07 00:54:00,74.3,73.1,29.82,SE,126,19.0,22.0,96,0.15,,---,0.14,VWS V14.01,2013-06-07 04:54:00,
2013-06-07 00:59:00,73.9,72.7,29.81,SE,137,16.0,18.0,96,0.15,,---,0.15,VWS V14.01,2013-06-07 04:59:00,
2013-06-07 01:04:00,74.0,72.8,29.81,ESE,121,19.0,19.0,96,0.17,,---,0.17,VWS V14.01,2013-06-07 05:04:00,
2013-06-07 01:09:00,74.2,73.0,29.80,ESE,116,8.0,20.0,96,0.20,,---,0.20,VWS V14.01,2013-06-07 05:09:00,
2013-06-07 01:14:00,74.2,73.0,29.80,SE,138,14.0,22.0,96,0.22,,---,0.22,VWS V14.01,2013-06-07 05:14:00,
2013-06-07 01:20:00,74.3,73.4,29.79,SE,130,8.0,22.0,97,0.28,,---,0.28,VWS V14.01,2013-06-07 05:20:00,
2013-06-07 01:25:00,74.4,73.5,29.79,SE,128,13.0,22.0,97,0.31,,---,0.31,VWS V14.01,2013-06-07 05:25:00,
2013-06-07 01:30:00,74.1,72.9,29.78,ESE,123,16.0,22.0,96,0.32,,---,0.35,VWS V14.01,2013-06-07 05:30:00,
2013-06-07 01:35:00,73.9,73.0,29.78,ESE,119,10.0,26.0,97,0.34,,---,0.37,VWS V14.01,2013-06-07 05:35:00,
2013-06-07 01:40:00,74.0,73.1,29.78,SE,130,12.0,26.0,97,0.35,,---,0.38,VWS V14.01,2013-06-07 05:40:00,
2013-06-07 01:45:00,74.0,73.1,29.78,SE,130,17.0,26.0,97,0.38,,---,0.41,VWS V14.01,2013-06-07 05:45:00,
2013-06-07 01:50:00,74.1,73.2,29.77,ESE,114,14.0,26.0,97,0.44,,---,0.47,VWS V14.01,2013-06-07 05:50:00,
2013-06-07 01:55:00,73.9,73.0,29.76,SE,131,12.0,27.0,97,0.51,,---,0.54,VWS V14.01,2013-06-07 05:55:00,
2013-06-07 02:00:00,73.9,73.0,29.75,ESE,119,9.0,15.0,97,0.44,,---,0.58,VWS V14.01,2013-06-07 06:00:00,
2013-06-07 02:05:00,73.9,73.0,29.74,ESE,118,15.0,20.0,97,0.46,,---,0.60,VWS V14.01,2013-06-07 06:05:00,
2013-06-07 02:10:00,73.8,72.9,29.74,ESE,117,19.0,24.0,97,0.47,,---,0.61,VWS V14.01,2013-06-07 06:10:00,
2013-06-07 02:15:00,74.2,73.3,29.75,SE,137,18.0,25.0,97,0.47,,---,0.61,VWS V14.01,2013-06-07 06:15:00,
2013-06-07 02:20:00,74.8,74.2,29.75,SSE,151,16.0,25.0,98,0.48,,---,0.62,VWS V14.01,2013-06-07 06:20:00,
2013-06-07 02:25:00,75.1,74.5,29.74,SSE,149,13.0,26.0,98,0.48,,---,0.62,VWS V14.01,2013-06-07 06:25:00,
2013-06-07 02:31:00,74.9,74.0,29.74,SE,136,18.0,25.0,97,0.28,,---,0.62,VWS V14.01,2013-06-07 06:31:00,
2013-06-07 02:36:00,74.8,73.9,29.74,South,184,16.0,25.0,97,0.28,,---,0.62,VWS V14.01,2013-06-07 06:36:00,
2013-06-07 02:41:00,75.0,74.1,29.73,SSE,148,23.0,29.0,97,0.28,,---,0.62,VWS V14.01,2013-06-07 06:41:00,
2013-06-07 02:46:00,75.4,74.5,29.73,East,86,20.0,29.0,97,0.28,,---,0.62,VWS V14.01,2013-06-07 06:46:00,
2013-06-07 02:51:00,75.6,74.7,29.74,South,169,28.0,35.0,97,0.30,,---,0.64,VWS V14.01,2013-06-07 06:51:00,
2013-06-07 02:56:00,75.8,75.2,29.75,SSW,209,29.0,35.0,98,0.39,,---,0.73,VWS V14.01,2013-06-07 06:56:00,
2013-06-07 03:02:00,75.2,74.3,29.74,SSW,192,18.0,40.0,97,0.23,,---,0.79,VWS V14.01,2013-06-07 07:02:00,
2013-06-07 03:07:00,75.0,74.1,29.74,SSW,204,33.0,41.0,97,0.25,,---,0.81,VWS V14.01,2013-06-07 07:07:00,
2013-06-07 03:12:00,74.7,73.8,29.74,SSW,200,28.0,41.0,97,0.27,,---,0.83,VWS V14.01,2013-06-07 07:12:00,
2013-06-07 03:17:00,74.9,74.0,29.74,SSW,209,26.0,41.0,97,0.29,,---,0.85,VWS V14.01,2013-06-07 07:17:00,
2013-06-07 03:22:00,74.9,74.0,29.73,SSW,192,29.0,41.0,97,0.29,,---,0.85,VWS V14.01,2013-06-07 07:22:00,
2013-06-07 03:27:00,74.8,73.9,29.73,SSW,198,22.0,41.0,97,0.30,,---,0.86,VWS V14.01,2013-06-07 07:27:00,
2013-06-07 03:32:00,74.7,73.8,29.72,SSW,212,22.0,27.0,97,0.25,,---,0.87,VWS V14.01,2013-06-07 07:32:00,
2013-06-07 03:37:00,74.8,73.9,29.72,SSW,195,29.0,30.0,97,0.25,,---,0.87,VWS V14.01,2013-06-07 07:37:00,
2013-06-07 03:42:00,74.4,73.5,29.71,SSW,199,31.0,42.0,97,0.25,,---,0.87,VWS V14.01,2013-06-07 07:42:00,
2013-06-07 03:47:00,74.3,73.4,29.71,South,188,25.0,42.0,97,0.25,,---,0.87,VWS V14.01,2013-06-07 07:47:00,
2013-06-07 03:52:00,74.3,73.4,29.70,SSW,204,25.0,42.0,97,0.25,,---,0.87,VWS V14.01,2013-06-07 07:52:00,
2013-06-07 03:58:00,74.4,73.5,29.71,SSW,202,23.0,28.0,97,0.12,,---,0.87,VWS V14.01,2013-06-07 07:58:00,
2013-06-07 04:03:00,74.6,73.7,29.70,South,178,25.0,31.0,97,0.12,,---,0.87,VWS V14.01,2013-06-07 08:03:00,
2013-06-07 04:08:00,74.9,74.0,29.70,South,182,32.0,37.0,97,0.12,,---,0.87,VWS V14.01,2013-06-07 08:08:00,
2013-06-07 04:13:00,75.2,74.3,29.70,SSW,194,28.0,37.0,97,0.12,,---,0.87,VWS V14.01,2013-06-07 08:13:00,
2013-06-07 04:18:00,75.4,74.5,29.70,South,181,24.0,37.0,97,0.12,,---,0.87,VWS V14.01,2013-06-07 08:18:00,
2013-06-07 04:23:00,75.5,74.3,29.69,SSW,205,21.0,37.0,96,0.12,,---,0.87,VWS V14.01,2013-06-07 08:23:00,
2013-06-07 04:28:00,75.4,74.2,29.69,SSW,200,24.0,26.0,96,0.01,,---,0.87,VWS V14.01,2013-06-07 08:28:00,
2013-06-07 04:33:00,76.1,75.2,29.69,SSW,199,21.0,34.0,97,0.06,,---,0.92,VWS V14.01,2013-06-07 08:33:00,
2013-06-07 04:38:00,76.3,75.4,29.68,South,191,22.0,34.0,97,0.10,,---,0.96,VWS V14.01,2013-06-07 08:38:00,
2013-06-07 04:44:00,76.3,75.4,29.68,South,189,29.0,34.0,97,0.10,,---,0.96,VWS V14.01,2013-06-07 08:44:00,
2013-06-07 04:49:00,76.4,75.5,29.68,SSW,192,26.0,34.0,97,0.10,,---,0.96,VWS V14.01,2013-06-07 08:49:00,
2013-06-07 04:54:00,76.4,75.5,29.68,SSW,197,28.0,36.0,97,0.10,,---,0.96,VWS V14.01,2013-06-07 08:54:00,
2013-06-07 04:59:00,76.4,75.5,29.68,SSW,199,24.0,33.0,97,0.09,,---,0.96,VWS V14.01,2013-06-07 08:59:00,
2013-06-07 05:04:00,76.4,75.5,29.68,SSW,194,29.0,35.0,97,0.09,,---,0.96,VWS V14.01,2013-06-07 09:04:00,
2013-06-07 05:09:00,76.4,75.5,29.68,SSW,200,28.0,36.0,97,0.09,,---,0.96,VWS V14.01,2013-06-07 09:09:00,
2013-06-07 05:14:00,76.4,75.5,29.68,SSW,194,29.0,36.0,97,0.09,,---,0.96,VWS V14.01,2013-06-07 09:14:00,
2013-06-07 05:19:00,76.5,75.6,29.68,South,187,19.0,36.0,97,0.09,,---,0.96,VWS V14.01,2013-06-07 09:19:00,
2013-06-07 05:24:00,76.5,75.6,29.68,SSW,202,27.0,36.0,97,0.09,,---,0.96,VWS V14.01,2013-06-07 09:24:00,
2013-06-07 05:29:00,76.5,75.6,29.68,SSW,193,28.0,35.0,97,0.09,,---,0.96,VWS V14.01,2013-06-07 09:29:00,
2013-06-07 05:34:00,76.5,75.3,29.68,SSW,193,27.0,35.0,96,0.09,,---,0.96,VWS V14.01,2013-06-07 09:34:00,
2013-06-07 05:39:00,76.5,75.3,29.68,SSW,203,33.0,35.0,96,0.09,,---,0.96,VWS V14.01,2013-06-07 09:39:00,
2013-06-07 05:44:00,76.6,75.4,29.67,SSW,202,32.0,36.0,96,0.09,,---,0.96,VWS V14.01,2013-06-07 09:44:00,
2013-06-07 05:49:00,76.6,75.4,29.68,SSE,167,20.0,36.0,96,0.09,,---,0.96,VWS V14.01,2013-06-07 09:49:00,
2013-06-07 05:54:00,76.5,75.3,29.68,SSW,196,18.0,36.0,96,0.09,,---,0.96,VWS V14.01,2013-06-07 09:54:00,
2013-06-07 05:59:00,76.6,75.4,29.68,SSW,193,19.0,34.0,96,0.00,,---,0.96,VWS V14.01,2013-06-07 09:59:00,
2013-06-07 06:05:00,76.6,75.4,29.68,SSE,159,19.0,34.0,96,0.00,,---,0.96,VWS V14.01,2013-06-07 10:05:00,
2013-06-07 06:10:00,76.6,75.4,29.68,South,180,23.0,34.0,96,0.00,,---,0.96,VWS V14.01,2013-06-07 10:10:00,
2013-06-07 06:15:00,76.6,75.4,29.68,SSW,192,19.0,34.0,96,0.00,,---,0.96,VWS V14.01,2013-06-07 10:15:00,
2013-06-07 06:20:00,76.6,75.4,29.68,South,187,16.0,34.0,96,0.00,,---,0.96,VWS V14.01,2013-06-07 10:20:00,
2013-06-07 06:25:00,76.6,75.4,29.67,SSW,198,23.0,34.0,96,0.00,,---,0.96,VWS V14.01,2013-06-07 10:25:00,
2013-06-07 06:30:00,76.6,75.4,29.67,SSW,194,18.0,30.0,96,0.00,,---,0.96,VWS V14.01,2013-06-07 10:30:00,
2013-06-07 06:35:00,76.7,75.5,29.67,SSW,194,22.0,33.0,96,0.00,,---,0.96,VWS V14.01,2013-06-07 10:35:00,
2013-06-07 06:40:00,76.7,75.5,29.67,SSW,207,33.0,34.0,96,0.00,,---,0.96,VWS V14.01,2013-06-07 10:40:00,
2013-06-07 06:45:00,76.7,75.5,29.67,SSW,197,33.0,38.0,96,0.00,,---,0.96,VWS V14.01,2013-06-07 10:45:00,
2013-06-07 06:50:00,76.7,75.2,29.67,South,190,28.0,38.0,95,0.00,,---,0.96,VWS V14.01,2013-06-07 10:50:00,
2013-06-07 06:55:00,76.7,75.2,29.67,SSW,198,17.0,38.0,95,0.00,,---,0.96,VWS V14.01,2013-06-07 10:55:00,
2013-06-07 07:00:00,76.7,75.2,29.67,South,188,28.0,32.0,95,0.00,,---,0.96,VWS V14.01,2013-06-07 11:00:00,
2013-06-07 07:05:00,76.7,75.2,29.67,SSW,204,32.0,33.0,95,0.00,,---,0.96,VWS V14.01,2013-06-07 11:05:00,
2013-06-07 07:10:00,76.8,75.3,29.67,SSW,194,31.0,33.0,95,0.00,,---,0.96,VWS V14.01,2013-06-07 11:10:00,
2013-06-07 07:15:00,76.9,75.4,29.67,SSW,203,13.0,33.0,95,0.00,,---,0.96,VWS V14.01,2013-06-07 11:15:00,
2013-06-07 07:20:00,76.8,75.3,29.66,SSW,192,27.0,33.0,95,0.01,,---,0.97,VWS V14.01,2013-06-07 11:20:00,
2013-06-07 07:25:00,76.9,75.4,29.66,South,181,31.0,37.0,95,0.01,,---,0.97,VWS V14.01,2013-06-07 11:25:00,
2013-06-07 07:30:00,77.0,75.1,29.66,SSW,209,21.0,40.0,94,0.01,,---,0.97,VWS V14.01,2013-06-07 11:30:00,
2013-06-07 07:35:00,77.1,75.2,29.66,South,191,21.0,41.0,94,0.01,,---,0.97,VWS V14.01,2013-06-07 11:35:00,
2013-06-07 07:40:00,77.2,75.3,29.66,SSW,202,28.0,41.0,94,0.01,,---,0.97,VWS V14.01,2013-06-07 11:40:00,
2013-06-07 07:46:00,77.3,75.1,29.65,SSW,193,25.0,43.0,93,0.01,,---,0.97,VWS V14.01,2013-06-07 11:46:00,
2013-06-07 07:51:00,77.5,75.3,29.65,SW,226,23.0,43.0,93,0.01,,---,0.97,VWS V14.01,2013-06-07 11:51:00,
2013-06-07 07:56:00,77.5,75.3,29.65,South,183,24.0,43.0,93,0.01,,---,0.97,VWS V14.01,2013-06-07 11:56:00,
2013-06-07 08:01:00,77.6,75.4,29.65,SSW,201,32.0,32.0,93,0.01,,---,0.97,VWS V14.01,2013-06-07 12:01:00,
2013-06-07 08:06:00,77.6,75.4,29.65,South,189,33.0,38.0,93,0.01,,---,0.97,VWS V14.01,2013-06-07 12:06:00,
2013-06-07 08:11:00,77.7,75.5,29.65,SSW,193,31.0,41.0,93,0.01,,---,0.97,VWS V14.01,2013-06-07 12:11:00,
2013-06-07 08:16:00,77.8,75.3,29.64,SSW,196,26.0,41.0,92,0.01,,---,0.97,VWS V14.01,2013-06-07 12:16:00,
2013-06-07 08:21:00,77.9,75.4,29.65,SSW,192,28.0,41.0,92,0.01,,---,0.97,VWS V14.01,2013-06-07 12:21:00,
2013-06-07 08:26:00,78.0,75.5,29.64,SSW,209,22.0,41.0,92,0.01,,---,0.97,VWS V14.01,2013-06-07 12:26:00,
2013-06-07 08:31:00,78.1,75.6,29.64,South,180,20.0,40.0,92,0.00,,---,0.97,VWS V14.01,2013-06-07 12:31:00,
2013-06-07 08:36:00,78.2,75.4,29.64,SSW,196,32.0,40.0,91,0.00,,---,0.97,VWS V14.01,2013-06-07 12:36:00,
2013-06-07 08:41:00,78.4,75.6,29.64,South,180,22.0,40.0,91,0.00,,---,0.97,VWS V14.01,2013-06-07 12:41:00,
2013-06-07 08:46:00,78.5,75.7,29.64,South,189,33.0,42.0,91,0.00,,---,0.97,VWS V14.01,2013-06-07 12:46:00,
2013-06-07 08:51:00,78.6,75.8,29.64,SSW,194,32.0,42.0,91,0.00,,---,0.97,VWS V14.01,2013-06-07 12:51:00,
2013-06-07 08:57:00,78.7,75.9,29.63,SSW,202,35.0,42.0,91,0.00,,---,0.97,VWS V14.01,2013-06-07 12:57:00,
2013-06-07 09:02:00,78.7,75.5,29.63,South,172,24.0,42.0,90,0.00,,---,0.97,VWS V14.01,2013-06-07 13:02:00,
2013-06-07 09:07:00,78.5,75.7,29.64,South,180,33.0,42.0,91,0.00,,---,0.97,VWS V14.01,2013-06-07 13:07:00,
2013-06-07 09:12:00,78.5,75.7,29.64,SSW,196,37.0,42.0,91,0.00,,---,0.97,VWS V14.01,2013-06-07 13:12:00,
2013-06-07 09:17:00,78.7,75.9,29.64,South,169,31.0,42.0,91,0.00,,---,0.97,VWS V14.01,2013-06-07 13:17:00,
2013-06-07 09:22:00,78.8,75.9,29.63,SSW,201,30.0,42.0,91,0.00,,---,0.97,VWS V14.01,2013-06-07 13:22:00,
2013-06-07 09:27:00,78.8,75.6,29.63,SSW,194,34.0,42.0,90,0.00,,---,0.97,VWS V14.01,2013-06-07 13:27:00,
2013-06-07 09:32:00,78.9,75.7,29.63,SW,218,27.0,39.0,90,0.00,,---,0.97,VWS V14.01,2013-06-07 13:32:00,
2013-06-07 09:37:00,79.0,75.8,29.63,South,175,28.0,48.0,90,0.00,,---,0.97,VWS V14.01,2013-06-07 13:37:00,
2013-06-07 09:42:00,79.1,75.9,29.63,SSW,196,16.0,48.0,90,0.00,,---,0.97,VWS V14.01,2013-06-07 13:42:00,
2013-06-07 09:48:00,79.2,76.0,29.63,SSW,193,32.0,48.0,90,0.00,,---,0.97,VWS V14.01,2013-06-07 13:48:00,
2013-06-07 09:53:00,79.1,75.6,29.62,SSW,192,25.0,48.0,89,0.00,,---,0.97,VWS V14.01,2013-06-07 13:53:00,
2013-06-07 09:58:00,79.3,75.8,29.62,South,175,19.0,40.0,89,0.00,,---,0.97,VWS V14.01,2013-06-07 13:58:00,
2013-06-07 10:03:00,79.2,75.7,29.62,SSW,199,33.0,40.0,89,0.00,,---,0.97,VWS V14.01,2013-06-07 14:03:00,
2013-06-07 10:08:00,78.9,75.7,29.62,SW,224,31.0,40.0,90,0.00,,---,0.97,VWS V14.01,2013-06-07 14:08:00,
2013-06-07 10:13:00,78.8,75.6,29.61,SSW,209,31.0,40.0,90,0.00,,---,0.97,VWS V14.01,2013-06-07 14:13:00,
2013-06-07 10:18:00,78.9,75.7,29.62,South,190,33.0,40.0,90,0.00,,---,0.97,VWS V14.01,2013-06-07 14:18:00,
2013-06-07 10:23:00,79.2,75.7,29.62,SSW,198,25.0,42.0,89,0.00,,---,0.97,VWS V14.01,2013-06-07 14:23:00,
2013-06-07 10:28:00,79.4,75.5,29.62,SSW,198,34.0,37.0,88,0.00,,---,0.97,VWS V14.01,2013-06-07 14:28:00,
2013-06-07 10:33:00,79.2,75.3,29.62,SSW,211,27.0,46.0,88,0.00,,---,0.97,VWS V14.01,2013-06-07 14:33:00,
2013-06-07 10:39:00,78.5,74.7,29.62,SSW,194,29.0,46.0,88,0.00,,---,0.97,VWS V14.01,2013-06-07 14:39:00,
2013-06-07 10:44:00,77.8,74.3,29.61,SSW,204,33.0,46.0,89,0.02,,---,0.99,VWS V14.01,2013-06-07 14:44:00,
2013-06-07 10:49:00,77.5,74.7,29.62,SSW,213,39.0,46.0,91,0.02,,---,0.99,VWS V14.01,2013-06-07 14:49:00,
2013-06-07 10:54:00,77.5,74.7,29.62,SSW,198,28.0,46.0,91,0.02,,---,0.99,VWS V14.01,2013-06-07 14:54:00,
2013-06-07 10:59:00,77.8,75.0,29.62,SSW,198,42.0,42.0,91,0.02,,---,0.99,VWS V14.01,2013-06-07 14:59:00,
2013-06-07 11:04:00,77.8,74.6,29.62,SSW,204,29.0,43.0,90,0.02,,---,0.99,VWS V14.01,2013-06-07 15:04:00,
2013-06-07 11:09:00,77.4,74.2,29.62,SSW,205,35.0,44.0,90,0.03,,---,1.00,VWS V14.01,2013-06-07 15:09:00,
2013-06-07 11:14:00,76.8,74.3,29.62,South,174,20.0,44.0,92,0.03,,---,1.00,VWS V14.01,2013-06-07 15:14:00,
2013-06-07 11:19:00,76.5,74.3,29.62,SSW,205,26.0,44.0,93,0.04,,---,1.01,VWS V14.01,2013-06-07 15:19:00,
2013-06-07 11:24:00,77.0,74.8,29.62,SSW,213,24.0,44.0,93,0.04,,---,1.01,VWS V14.01,2013-06-07 15:24:00,
2013-06-07 11:29:00,77.0,74.8,29.62,SW,223,27.0,34.0,93,0.04,,---,1.01,VWS V14.01,2013-06-07 15:29:00,
2013-06-07 11:34:00,77.2,74.7,29.61,SW,215,25.0,39.0,92,0.04,,---,1.01,VWS V14.01,2013-06-07 15:34:00,
2013-06-07 11:39:00,77.3,74.5,29.61,SSW,210,30.0,40.0,91,0.04,,---,1.01,VWS V14.01,2013-06-07 15:39:00,
2013-06-07 11:44:00,77.0,74.5,29.62,SSW,198,23.0,42.0,92,0.04,,---,1.01,VWS V14.01,2013-06-07 15:44:00,
2013-06-07 11:49:00,76.9,74.4,29.62,SW,216,31.0,42.0,92,0.04,,---,1.01,VWS V14.01,2013-06-07 15:49:00,
2013-06-07 11:54:00,77.2,74.7,29.61,SSW,211,17.0,42.0,92,0.04,,---,1.01,VWS V14.01,2013-06-07 15:54:00,
2013-06-07 11:59:00,77.5,75.0,29.61,South,181,26.0,32.0,92,0.02,,---,1.01,VWS V14.01,2013-06-07 15:59:00,
2013-06-07 12:05:00,77.9,75.1,29.61,SSW,197,28.0,37.0,91,0.02,,---,1.01,VWS V14.01,2013-06-07 16:05:00,
2013-06-07 12:10:00,78.2,75.0,29.61,SSW,201,29.0,40.0,90,0.02,,---,1.01,VWS V14.01,2013-06-07 16:10:00,
2013-06-07 12:15:00,77.4,74.2,29.61,SSW,196,30.0,40.0,90,0.02,,---,1.01,VWS V14.01,2013-06-07 16:15:00,
2013-06-07 12:20:00,77.1,74.3,29.60,SW,223,25.0,40.0,91,0.02,,---,1.01,VWS V14.01,2013-06-07 16:20:00,
2013-06-07 12:25:00,77.1,74.6,29.60,SW,217,19.0,40.0,92,0.02,,---,1.01,VWS V14.01,2013-06-07 16:25:00,
2013-06-07 12:30:00,77.3,74.5,29.61,SSW,194,19.0,36.0,91,0.00,,---,1.01,VWS V14.01,2013-06-07 16:30:00,
2013-06-07 12:35:00,77.6,74.1,29.60,SW,223,22.0,43.0,89,0.00,,---,1.01,VWS V14.01,2013-06-07 16:35:00,
2013-06-07 12:40:00,77.8,74.0,29.60,SSW,203,28.0,43.0,88,0.00,,---,1.01,VWS V14.01,2013-06-07 16:40:00,
2013-06-07 12:45:00,77.5,73.7,29.59,SSW,205,33.0,43.0,88,0.00,,---,1.01,VWS V14.01,2013-06-07 16:45:00,
2013-06-07 12:50:00,77.5,74.0,29.59,SSW,211,19.0,43.0,89,0.00,,---,1.01,VWS V14.01,2013-06-07 16:50:00,
2013-06-07 12:55:00,77.5,73.3,29.59,SSW,211,45.0,46.0,87,0.00,,---,1.01,VWS V14.01,2013-06-07 16:55:00,
2013-06-07 13:00:00,77.5,73.3,29.59,SW,216,25.0,43.0,87,0.00,,---,1.01,VWS V14.01,2013-06-07 17:00:00,
2013-06-07 13:05:00,77.6,73.4,29.58,SW,215,34.0,49.0,87,0.00,,---,1.01,VWS V14.01,2013-06-07 17:05:00,
2013-06-07 13:11:00,77.4,73.2,29.58,SW,231,24.0,49.0,87,0.00,,---,1.01,VWS V14.01,2013-06-07 17:11:00,
2013-06-07 13:16:00,77.5,73.3,29.57,SSW,202,22.0,49.0,87,0.00,,---,1.01,VWS V14.01,2013-06-07 17:16:00,
2013-06-07 13:21:00,77.5,73.3,29.57,WSW,239,35.0,49.0,87,0.00,,---,1.01,VWS V14.01,2013-06-07 17:21:00,
2013-06-07 13:26:00,77.5,73.3,29.58,SW,218,35.0,49.0,87,0.00,,---,1.01,VWS V14.01,2013-06-07 17:26:00,
2013-06-07 13:31:00,77.6,73.4,29.58,West,281,29.0,40.0,87,0.00,,---,1.01,VWS V14.01,2013-06-07 17:31:00,
2013-06-07 13:36:00,77.5,73.3,29.57,SSW,212,35.0,47.0,87,0.00,,---,1.01,VWS V14.01,2013-06-07 17:36:00,
2013-06-07 13:41:00,77.5,73.3,29.57,SSW,199,29.0,47.0,87,0.00,,---,1.01,VWS V14.01,2013-06-07 17:41:00,
2013-06-07 13:46:00,77.6,73.4,29.57,SSW,202,27.0,47.0,87,0.00,,---,1.01,VWS V14.01,2013-06-07 17:46:00,
2013-06-07 13:51:00,77.5,73.3,29.57,SSW,194,29.0,47.0,87,0.00,,---,1.01,VWS V14.01,2013-06-07 17:51:00,
2013-06-07 13:57:00,77.8,74.0,29.57,SSW,208,22.0,47.0,88,0.00,,---,1.01,VWS V14.01,2013-06-07 17:57:00,
2013-06-07 14:02:00,77.4,73.6,29.57,SSW,210,33.0,41.0,88,0.00,,---,1.01,VWS V14.01,2013-06-07 18:02:00,
2013-06-07 14:07:00,77.2,73.7,29.57,SW,214,25.0,41.0,89,0.00,,---,1.01,VWS V14.01,2013-06-07 18:07:00,
2013-06-07 14:12:00,77.3,73.8,29.57,SSW,207,40.0,42.0,89,0.00,,---,1.01,VWS V14.01,2013-06-07 18:12:00,
2013-06-07 14:17:00,77.4,73.9,29.57,SSW,212,32.0,42.0,89,0.00,,---,1.01,VWS V14.01,2013-06-07 18:17:00,
2013-06-07 14:22:00,77.2,73.7,29.57,WSW,242,33.0,42.0,89,0.00,,---,1.01,VWS V14.01,2013-06-07 18:22:00,
2013-06-07 14:27:00,77.1,73.9,29.57,SW,219,26.0,26.0,90,0.00,,---,1.01,VWS V14.01,2013-06-07 18:27:00,
2013-06-07 14:32:00,77.1,74.3,29.57,WSW,242,28.0,39.0,91,0.00,,---,1.01,VWS V14.01,2013-06-07 18:32:00,
2013-06-07 14:37:00,77.4,74.6,29.58,SW,226,25.0,39.0,91,0.00,,---,1.01,VWS V14.01,2013-06-07 18:37:00,
2013-06-07 14:43:00,77.1,74.3,29.58,SSW,202,31.0,39.0,91,0.00,,---,1.01,VWS V14.01,2013-06-07 18:43:00,
2013-06-07 14:48:00,77.2,74.4,29.58,SW,222,20.0,39.0,91,0.00,,---,1.01,VWS V14.01,2013-06-07 18:48:00,
2013-06-07 14:53:00,77.3,74.5,29.58,SW,234,21.0,39.0,91,0.00,,---,1.01,VWS V14.01,2013-06-07 18:53:00,
2013-06-07 14:58:00,77.8,74.6,29.58,SW,232,27.0,33.0,90,0.00,,---,1.01,VWS V14.01,2013-06-07 18:58:00,
2013-06-07 15:03:00,78.2,74.7,29.58,SW,215,25.0,39.0,89,0.00,,---,1.01,VWS V14.01,2013-06-07 19:03:00,
2013-06-07 15:08:00,78.5,74.3,29.58,SW,235,25.0,39.0,87,0.00,,---,1.01,VWS V14.01,2013-06-07 19:08:00,
2013-06-07 15:13:00,78.7,74.5,29.59,SW,232,29.0,39.0,87,0.00,,---,1.01,VWS V14.01,2013-06-07 19:13:00,
2013-06-07 15:18:00,78.5,74.3,29.59,SW,224,33.0,39.0,87,0.00,,---,1.01,VWS V14.01,2013-06-07 19:18:00,
2013-06-07 15:24:00,78.4,74.2,29.59,SW,215,24.0,39.0,87,0.00,,---,1.01,VWS V14.01,2013-06-07 19:24:00,
2013-06-07 15:29:00,78.3,74.1,29.60,SW,221,29.0,29.0,87,0.00,,---,1.01,VWS V14.01,2013-06-07 19:29:00,
2013-06-07 15:34:00,78.7,74.5,29.60,West,270,14.0,35.0,87,0.00,,---,1.01,VWS V14.01,2013-06-07 19:34:00,
2013-06-07 15:39:00,79.7,74.8,29.61,SW,227,16.0,35.0,85,0.00,,---,1.01,VWS V14.01,2013-06-07 19:39:00,
2013-06-07 15:44:00,79.9,74.3,29.61,West,273,11.0,35.0,83,0.00,,---,1.01,VWS V14.01,2013-06-07 19:44:00,
2013-06-07 15:50:00,80.2,74.2,29.61,SW,228,14.0,35.0,82,0.00,,---,1.01,VWS V14.01,2013-06-07 19:50:00,
2013-06-07 15:55:00,79.6,74.0,29.61,SW,234,26.0,35.0,83,0.00,,---,1.01,VWS V14.01,2013-06-07 19:55:00,
2013-06-07 16:00:00,79.3,74.4,29.61,SSW,198,19.0,24.0,85,0.00,,---,1.01,VWS V14.01,2013-06-07 20:00:00,
2013-06-07 16:05:00,79.3,74.4,29.61,West,275,9.0,31.0,85,0.00,,---,1.01,VWS V14.01,2013-06-07 20:05:00,
2013-06-07 16:11:00,79.0,74.1,29.62,SSW,210,13.0,31.0,85,0.00,,---,1.01,VWS V14.01,2013-06-07 20:11:00,
2013-06-07 16:16:00,79.0,74.1,29.62,WSW,253,22.0,31.0,85,0.00,,---,1.01,VWS V14.01,2013-06-07 20:16:00,
2013-06-07 16:21:00,79.1,73.8,29.63,West,275,20.0,32.0,84,0.00,,---,1.01,VWS V14.01,2013-06-07 20:21:00,
2013-06-07 16:26:00,78.9,73.7,29.62,West,263,29.0,32.0,84,0.00,,---,1.01,VWS V14.01,2013-06-07 20:26:00,
2013-06-07 16:31:00,79.0,74.1,29.63,West,264,15.0,23.0,85,0.00,,---,1.01,VWS V14.01,2013-06-07 20:31:00,
2013-06-07 16:36:00,79.0,73.8,29.63,WSW,248,15.0,29.0,84,0.00,,---,1.01,VWS V14.01,2013-06-07 20:36:00,
2013-06-07 16:41:00,78.3,73.4,29.64,West,265,22.0,32.0,85,0.00,,---,1.01,VWS V14.01,2013-06-07 20:41:00,
2013-06-07 16:47:00,78.3,74.1,29.64,WNW,283,17.0,32.0,87,0.00,,---,1.01,VWS V14.01,2013-06-07 20:47:00,
2013-06-07 16:52:00,78.5,74.3,29.64,West,281,25.0,32.0,87,0.00,,---,1.01,VWS V14.01,2013-06-07 20:52:00,
2013-06-07 16:57:00,78.6,73.7,29.64,West,279,23.0,32.0,85,0.00,,---,1.01,VWS V14.01,2013-06-07 20:57:00,
2013-06-07 17:03:00,78.7,73.5,29.65,West,266,24.0,29.0,84,0.00,,---,1.01,VWS V14.01,2013-06-07 21:03:00,
2013-06-07 17:08:00,78.6,73.4,29.65,West,277,23.0,30.0,84,0.00,,---,1.01,VWS V14.01,2013-06-07 21:08:00,
2013-06-07 17:13:00,78.5,72.9,29.66,West,272,24.0,30.0,83,0.00,,---,1.01,VWS V14.01,2013-06-07 21:13:00,
2013-06-07 17:18:00,78.8,72.8,29.66,West,260,25.0,35.0,82,0.00,,---,1.01,VWS V14.01,2013-06-07 21:18:00,
2013-06-07 17:23:00,78.7,72.4,29.66,WNW,288,24.0,36.0,81,0.00,,---,1.01,VWS V14.01,2013-06-07 21:23:00,
2013-06-07 17:28:00,78.4,72.1,29.66,West,281,31.0,31.0,81,0.00,,---,1.01,VWS V14.01,2013-06-07 21:28:00,
2013-06-07 17:33:00,78.3,72.4,29.67,West,280,26.0,31.0,82,0.00,,---,1.01,VWS V14.01,2013-06-07 21:33:00,
2013-06-07 17:39:00,78.2,72.6,29.67,West,277,29.0,31.0,83,0.00,,---,1.01,VWS V14.01,2013-06-07 21:39:00,
2013-06-07 17:44:00,78.2,72.6,29.68,West,269,27.0,31.0,83,0.00,,---,1.01,VWS V14.01,2013-06-07 21:44:00,
2013-06-07 17:49:00,78.2,72.6,29.68,West,278,22.0,31.0,83,0.00,,---,1.01,VWS V14.01,2013-06-07 21:49:00,
2013-06-07 17:54:00,78.3,72.7,29.68,West,272,22.0,31.0,83,0.00,,---,1.01,VWS V14.01,2013-06-07 21:54:00,
2013-06-07 17:59:00,78.2,72.3,29.69,West,275,23.0,28.0,82,0.00,,---,1.01,VWS V14.01,2013-06-07 21:59:00,
2013-06-07 18:04:00,78.1,72.5,29.69,West,269,19.0,28.0,83,0.00,,---,1.01,VWS V14.01,2013-06-07 22:04:00,
2013-06-07 18:09:00,78.1,72.5,29.69,West,269,25.0,28.0,83,0.00,,---,1.01,VWS V14.01,2013-06-07 22:09:00,
2013-06-07 18:14:00,78.1,72.5,29.70,West,269,23.0,30.0,83,0.00,,---,1.01,VWS V14.01,2013-06-07 22:14:00,
2013-06-07 18:20:00,78.2,72.6,29.70,West,277,17.0,30.0,83,0.00,,---,1.01,VWS V14.01,2013-06-07 22:20:00,
2013-06-07 18:25:00,78.4,72.4,29.70,West,273,15.0,30.0,82,0.00,,---,1.01,VWS V14.01,2013-06-07 22:25:00,
2013-06-07 18:30:00,78.4,72.8,29.70,West,281,28.0,32.0,83,0.00,,---,1.01,VWS V14.01,2013-06-07 22:30:00,
2013-06-07 18:35:00,78.4,72.4,29.71,WSW,257,21.0,32.0,82,0.00,,---,1.01,VWS V14.01,2013-06-07 22:35:00,
2013-06-07 18:41:00,78.5,72.6,29.71,West,269,23.0,32.0,82,0.00,,---,1.01,VWS V14.01,2013-06-07 22:41:00,
2013-06-07 18:46:00,78.5,72.6,29.72,West,271,16.0,32.0,82,0.00,,---,1.01,VWS V14.01,2013-06-07 22:46:00,
2013-06-07 18:51:00,78.6,73.0,29.72,West,271,14.0,32.0,83,0.00,,---,1.01,VWS V14.01,2013-06-07 22:51:00,
2013-06-07 18:57:00,78.7,72.8,29.73,West,272,16.0,32.0,82,0.00,,---,1.01,VWS V14.01,2013-06-07 22:57:00,
2013-06-07 19:02:00,79.0,72.7,29.73,West,262,12.0,27.0,81,0.00,,---,1.01,VWS V14.01,2013-06-07 23:02:00,
2013-06-07 19:07:00,79.1,72.8,29.73,West,261,18.0,27.0,81,0.00,,---,1.01,VWS V14.01,2013-06-07 23:07:00,
2013-06-07 19:12:00,79.0,73.0,29.74,WSW,253,13.0,27.0,82,0.00,,---,1.01,VWS V14.01,2013-06-07 23:12:00,
2013-06-07 19:17:00,78.8,72.8,29.74,West,273,19.0,27.0,82,0.00,,---,1.01,VWS V14.01,2013-06-07 23:17:00,
2013-06-07 19:22:00,78.6,72.7,29.74,West,277,20.0,28.0,82,0.00,,---,1.01,VWS V14.01,2013-06-07 23:22:00,
2013-06-07 19:28:00,78.8,72.8,29.74,West,266,16.0,17.0,82,0.00,,---,1.01,VWS V14.01,2013-06-07 23:28:00,
2013-06-07 19:33:00,78.9,72.9,29.74,West,269,13.0,20.0,82,0.00,,---,1.01,VWS V14.01,2013-06-07 23:33:00,
2013-06-07 19:38:00,78.8,72.8,29.75,West,275,18.0,25.0,82,0.00,,---,1.01,VWS V14.01,2013-06-07 23:38:00,
2013-06-07 19:43:00,78.6,72.7,29.75,West,269,16.0,25.0,82,0.00,,---,1.01,VWS V14.01,2013-06-07 23:43:00,
2013-06-07 19:48:00,78.6,72.7,29.75,West,280,15.0,25.0,82,0.00,,---,1.01,VWS V14.01,2013-06-07 23:48:00,
2013-06-07 19:54:00,78.6,73.0,29.76,West,267,10.0,25.0,83,0.00,,---,1.01,VWS V14.01,2013-06-07 23:54:00,
2013-06-07 19:59:00,78.5,72.9,29.76,West,268,19.0,20.0,83,0.00,,---,1.01,VWS V14.01,2013-06-07 23:59:00,
2013-06-07 20:04:00,78.5,72.9,29.76,West,268,14.0,20.0,83,0.00,,---,1.01,VWS V14.01,2013-06-08 00:04:00,
2013-06-07 20:10:00,78.4,73.2,29.76,West,279,12.0,21.0,84,0.00,,---,1.01,VWS V14.01,2013-06-08 00:10:00,
2013-06-07 20:15:00,78.2,73.0,29.76,West,277,15.0,21.0,84,0.00,,---,1.01,VWS V14.01,2013-06-08 00:15:00,
2013-06-07 20:20:00,78.2,73.0,29.77,WSW,257,11.0,21.0,84,0.00,,---,1.01,VWS V14.01,2013-06-08 00:20:00,
2013-06-07 20:25:00,78.2,73.0,29.77,West,270,10.0,21.0,84,0.00,,---,1.01,VWS V14.01,2013-06-08 00:25:00,
2013-06-07 20:30:00,78.1,72.5,29.77,West,265,6.0,19.0,83,0.00,,---,1.01,VWS V14.01,2013-06-08 00:30:00,
2013-06-07 20:35:00,78.1,72.5,29.77,WSW,255,9.0,19.0,83,0.00,,---,1.01,VWS V14.01,2013-06-08 00:35:00,
2013-06-07 20:40:00,78.2,73.0,29.78,West,279,11.0,19.0,84,0.00,,---,1.01,VWS V14.01,2013-06-08 00:40:00,
2013-06-07 20:45:00,78.2,73.0,29.78,West,269,13.0,19.0,84,0.00,,---,1.01,VWS V14.01,2013-06-08 00:45:00,
2013-06-07 20:51:00,78.1,72.9,29.79,WSW,254,7.0,19.0,84,0.00,,---,1.01,VWS V14.01,2013-06-08 00:51:00,
2013-06-07 20:56:00,78.0,73.1,29.79,West,261,6.0,19.0,85,0.00,,---,1.01,VWS V14.01,2013-06-08 00:56:00,
2013-06-07 21:01:00,77.8,73.3,29.79,West,268,9.0,12.0,86,0.00,,---,1.01,VWS V14.01,2013-06-08 01:01:00,
2013-06-07 21:06:00,77.6,73.4,29.80,West,268,5.0,12.0,87,0.00,,---,1.01,VWS V14.01,2013-06-08 01:06:00,
2013-06-07 21:12:00,77.3,73.1,29.80,West,267,6.0,12.0,87,0.00,,---,1.01,VWS V14.01,2013-06-08 01:12:00,
2013-06-07 21:17:00,77.3,73.5,29.80,West,262,4.0,12.0,88,0.00,,---,1.01,VWS V14.01,2013-06-08 01:17:00,
2013-06-07 21:22:00,77.1,73.3,29.81,West,265,3.0,12.0,88,0.00,,---,1.01,VWS V14.01,2013-06-08 01:22:00,
2013-06-07 21:28:00,76.8,73.0,29.82,WSW,252,1.0,2.0,88,0.00,,---,1.01,VWS V14.01,2013-06-08 01:28:00,
2013-06-07 21:33:00,76.7,72.9,29.82,WSW,238,5.0,5.0,88,0.00,,---,1.01,VWS V14.01,2013-06-08 01:33:00,
2013-06-07 21:39:00,76.7,72.9,29.82,SW,236,5.0,10.0,88,0.00,,---,1.01,VWS V14.01,2013-06-08 01:39:00,
2013-06-07 21:44:00,76.7,72.9,29.82,WSW,238,6.0,10.0,88,0.00,,---,1.01,VWS V14.01,2013-06-08 01:44:00,
2013-06-07 21:49:00,76.7,72.9,29.82,SW,225,5.0,10.0,88,0.00,,---,1.01,VWS V14.01,2013-06-08 01:49:00,
2013-06-07 21:54:00,76.8,73.0,29.82,SSW,211,7.0,12.0,88,0.00,,---,1.01,VWS V14.01,2013-06-08 01:54:00,
2013-06-07 21:59:00,76.8,73.3,29.83,SW,225,9.0,10.0,89,0.00,,---,1.01,VWS V14.01,2013-06-08 01:59:00,
2013-06-07 22:05:00,76.7,73.2,29.83,WSW,252,8.0,11.0,89,0.00,,---,1.01,VWS V14.01,2013-06-08 02:05:00,
2013-06-07 22:10:00,76.6,73.1,29.84,WSW,238,5.0,12.0,89,0.00,,---,1.01,VWS V14.01,2013-06-08 02:10:00,
2013-06-07 22:15:00,76.6,73.4,29.84,SW,223,10.0,13.0,90,0.00,,---,1.01,VWS V14.01,2013-06-08 02:15:00,
2013-06-07 22:20:00,76.6,73.4,29.84,WSW,253,3.0,13.0,90,0.00,,---,1.01,VWS V14.01,2013-06-08 02:20:00,
2013-06-07 22:26:00,76.6,73.8,29.84,SW,230,6.0,13.0,91,0.00,,---,1.01,VWS V14.01,2013-06-08 02:26:00,
2013-06-07 22:31:00,76.6,73.8,29.84,SW,235,6.0,10.0,91,0.00,,---,1.01,VWS V14.01,2013-06-08 02:31:00,
2013-06-07 22:36:00,76.5,73.7,29.84,WSW,239,5.0,12.0,91,0.00,,---,1.01,VWS V14.01,2013-06-08 02:36:00,
2013-06-07 22:41:00,76.5,73.7,29.84,WSW,243,6.0,12.0,91,0.00,,---,1.01,VWS V14.01,2013-06-08 02:41:00,
2013-06-07 22:46:00,76.5,74.0,29.84,SW,229,4.0,14.0,92,0.00,,---,1.01,VWS V14.01,2013-06-08 02:46:00,
2013-06-07 22:51:00,76.4,73.9,29.84,SW,216,6.0,14.0,92,0.00,,---,1.01,VWS V14.01,2013-06-08 02:51:00,
2013-06-07 22:56:00,76.4,73.9,29.85,West,260,11.0,14.0,92,0.00,,---,1.01,VWS V14.01,2013-06-08 02:56:00,
2013-06-07 23:02:00,76.3,73.8,29.85,SW,216,7.0,13.0,92,0.00,,---,1.01,VWS V14.01,2013-06-08 03:02:00,
2013-06-07 23:07:00,76.3,73.8,29.85,SW,232,7.0,15.0,92,0.00,,---,1.01,VWS V14.01,2013-06-08 03:07:00,
2013-06-07 23:12:00,76.3,73.8,29.85,SW,236,6.0,15.0,92,0.00,,---,1.01,VWS V14.01,2013-06-08 03:12:00,
2013-06-07 23:17:00,76.3,73.8,29.85,SW,236,6.0,15.0,92,0.00,,---,1.01,VWS V14.01,2013-06-08 03:17:00,
2013-06-07 23:22:00,76.2,73.7,29.85,SW,225,11.0,15.0,92,0.00,,---,1.01,VWS V14.01,2013-06-08 03:22:00,
2013-06-07 23:27:00,76.3,73.8,29.85,SW,228,5.0,15.0,92,0.00,,---,1.01,VWS V14.01,2013-06-08 03:27:00,
2013-06-07 23:32:00,76.3,73.8,29.85,SW,230,7.0,13.0,92,0.00,,---,1.01,VWS V14.01,2013-06-08 03:32:00,
2013-06-07 23:38:00,76.3,73.8,29.85,SW,235,11.0,14.0,92,0.00,,---,1.01,VWS V14.01,2013-06-08 03:38:00,
2013-06-07 23:43:00,76.2,73.7,29.85,WSW,246,5.0,14.0,92,0.00,,---,1.01,VWS V14.01,2013-06-08 03:43:00,
2013-06-07 23:48:00,76.3,73.8,29.85,SW,219,9.0,14.0,92,0.00,,---,1.01,VWS V14.01,2013-06-08 03:48:00,
2013-06-07 23:53:00,76.3,73.8,29.85,SW,226,10.0,14.0,92,0.00,,---,1.01,VWS V14.01,2013-06-08 03:53:00,
2013-06-07 23:58:00,76.2,73.7,29.85,SW,219,7.0,17.0,92,0.00,,---,0.00,VWS V14.01,2013-06-08 03:58:00,